createdAt,value
2023-01-13T00:01:55.795Z,101075.84
2023-01-13T00:04:26.843Z,101078.53
2023-01-13T00:06:57.442Z,101089.34
2023-01-13T00:09:27.933Z,101094.31
2023-01-13T00:11:58.549Z,101093.28
2023-01-13T00:14:31.225Z,101100.56
2023-01-13T00:17:01.846Z,101102.63
2023-01-13T00:19:32.624Z,101104.50
2023-01-13T00:22:03.199Z,101106.34
2023-01-13T00:24:33.897Z,101114.44
2023-01-13T00:27:04.581Z,101121.06
2023-01-13T00:29:35.906Z,101121.44
2023-01-13T00:32:06.646Z,101122.66
2023-01-13T00:34:37.241Z,101128.06
2023-01-13T00:37:07.871Z,101138.88
2023-01-13T00:39:38.360Z,101135.13
2023-01-13T00:42:27.458Z,101138.47
2023-01-13T00:44:57.989Z,101146.34
2023-01-13T00:47:28.543Z,101146.34
2023-01-13T00:49:59.440Z,101150.53
2023-01-13T00:52:30.573Z,101152.22
2023-01-13T00:55:02.321Z,101150.13
2023-01-13T00:57:36.234Z,101147.22
2023-01-13T01:00:07.239Z,101147.22
2023-01-13T01:02:37.845Z,101149.75
2023-01-13T01:05:08.895Z,101156.41
2023-01-13T01:07:39.814Z,101152.66
2023-01-13T01:10:11.140Z,101159.75
2023-01-13T01:12:41.872Z,101168.44
2023-01-13T01:15:13.166Z,101159.34
2023-01-13T01:17:43.861Z,101164.91
2023-01-13T01:20:15.246Z,101164.34
2023-01-13T01:22:46.073Z,101175.56
2023-01-13T01:25:16.926Z,101165.59
2023-01-13T01:27:47.700Z,101179.34
2023-01-13T01:30:18.995Z,101186.44
2023-01-13T01:32:49.822Z,101184.34
2023-01-13T01:35:20.579Z,101182.69
2023-01-13T01:37:51.283Z,101193.50
2023-01-13T01:40:21.913Z,101194.13
2023-01-13T01:43:10.505Z,101194.97
2023-01-13T01:45:41.058Z,101189.34
2023-01-13T01:48:12.539Z,101187.28
2023-01-13T01:50:43.503Z,101191.03
2023-01-13T01:53:17.149Z,101196.03
2023-01-13T01:55:47.866Z,101188.13
2023-01-13T01:58:23.850Z,101190.63
2023-01-13T02:00:54.476Z,101193.97
2023-01-13T02:03:25.719Z,101195.63
2023-01-13T02:05:56.710Z,101198.31
2023-01-13T02:08:27.191Z,101199.56
2023-01-13T02:10:57.837Z,101197.72
2023-01-13T02:13:28.869Z,101200.22
2023-01-13T02:16:12.766Z,101205.22
2023-01-13T02:18:56.166Z,101198.16
2023-01-13T02:21:42.242Z,101198.78
2023-01-13T02:24:53.710Z,101200.25
2023-01-13T02:27:47.235Z,101201.91
2023-01-13T02:30:44.784Z,101198.16
2023-01-13T02:33:15.372Z,101203.16
2023-01-13T02:35:54.492Z,101205.69
2023-01-13T02:38:29.644Z,101201.94
2023-01-13T02:41:22.744Z,101198.22
2023-01-13T02:44:09.419Z,101196.13
2023-01-13T02:46:50.941Z,101202.16
2023-01-13T02:49:26.980Z,101196.56
2023-01-13T02:52:00.956Z,101193.44
2023-01-13T02:54:32.357Z,101193.22
2023-01-13T02:57:03.192Z,101196.56
2023-01-13T02:59:35.983Z,101191.81
2023-01-13T03:02:08.369Z,101194.09
2023-01-13T03:04:52.567Z,101195.75
2023-01-13T03:07:26.231Z,101188.31
2023-01-13T03:10:06.924Z,101188.72
2023-01-13T03:12:46.460Z,101173.97
2023-01-13T03:15:24.307Z,101164.59
2023-01-13T03:18:09.069Z,101171.47
2023-01-13T03:20:45.623Z,101171.47
2023-01-13T03:23:29.989Z,101166.72
2023-01-13T03:26:17.315Z,101167.34
2023-01-13T03:28:51.162Z,101159.84
2023-01-13T03:31:26.232Z,101156.09
2023-01-13T03:33:59.579Z,101157.34
2023-01-13T03:36:31.822Z,101152.56
2023-01-13T03:39:05.912Z,101156.50
2023-01-13T03:41:58.728Z,101147.16
2023-01-13T03:44:35.578Z,101149.66
2023-01-13T03:47:09.618Z,101154.66
2023-01-13T03:49:46.020Z,101147.19
2023-01-13T03:52:21.438Z,101149.47
2023-01-13T03:55:05.045Z,101135.94
2023-01-13T03:57:38.406Z,101133.84
2023-01-13T04:00:11.489Z,101131.34
2023-01-13T04:02:41.691Z,101133.03
2023-01-13T04:05:12.796Z,101121.78
2023-01-13T04:07:49.159Z,101117.19
2023-01-13T04:10:29.581Z,101117.84
2023-01-13T04:13:19.815Z,101102.59
2023-01-13T04:15:51.031Z,101111.81
2023-01-13T04:18:32.099Z,101103.69
2023-01-13T04:21:03.714Z,101097.84
2023-01-13T04:23:34.649Z,101094.31
2023-01-13T04:26:05.569Z,101082.25
2023-01-13T04:28:36.480Z,101080.16
2023-01-13T04:31:07.274Z,101079.31
2023-01-13T04:33:38.001Z,101069.75
2023-01-13T04:36:08.945Z,101055.22
2023-01-13T04:38:39.757Z,101069.13
2023-01-13T04:41:10.915Z,101052.69
2023-01-13T04:43:41.512Z,101053.31
2023-01-13T04:46:12.352Z,101048.13
2023-01-13T04:48:42.905Z,101043.53
2023-01-13T04:51:13.616Z,101042.47
2023-01-13T04:53:44.497Z,101034.78
2023-01-13T04:56:15.138Z,101031.44
2023-01-13T04:58:45.833Z,101026.03
2023-01-13T05:01:17.297Z,101022.31
2023-01-13T05:03:47.854Z,101016.47
2023-01-13T05:06:18.641Z,101005.63
2023-01-13T05:08:49.520Z,101001.72
2023-01-13T05:11:38.096Z,100996.88
2023-01-13T05:14:26.568Z,100987.53
2023-01-13T05:17:04.694Z,100987.31
2023-01-13T05:19:36.471Z,100986.50
2023-01-13T05:22:25.309Z,100977.31
2023-01-13T05:25:13.987Z,100978.78
2023-01-13T05:27:44.798Z,100973.34
2023-01-13T05:30:16.027Z,100969.00
2023-01-13T05:32:46.861Z,100965.25
2023-01-13T05:35:18.151Z,100959.00
2023-01-13T05:37:49.175Z,100956.44
2023-01-13T05:40:39.084Z,100943.13
2023-01-13T05:43:23.259Z,100935.19
2023-01-13T05:46:01.295Z,100938.06
2023-01-13T05:48:33.516Z,100927.63
2023-01-13T05:51:05.619Z,100919.94
2023-01-13T05:53:37.104Z,100919.50
2023-01-13T05:56:08.584Z,100900.53
2023-01-13T05:58:39.329Z,100909.66
2023-01-13T06:01:10.651Z,100895.88
2023-01-13T06:03:41.422Z,100888.38
2023-01-13T06:06:11.944Z,100881.91
2023-01-13T06:08:42.558Z,100876.91
2023-01-13T06:11:13.179Z,100875.63
2023-01-13T06:13:43.836Z,100868.34
2023-01-13T06:16:14.403Z,100872.53
2023-01-13T06:18:45.025Z,100861.25
2023-01-13T06:21:15.596Z,100856.41
2023-01-13T06:23:46.269Z,100857.03
2023-01-13T06:26:19.559Z,100852.22
2023-01-13T06:28:51.660Z,100857.44
2023-01-13T06:31:22.630Z,100851.56
2023-01-13T06:33:56.116Z,100846.97
2023-01-13T06:36:32.963Z,100841.13
2023-01-13T06:39:04.493Z,100840.88
2023-01-13T06:41:53.675Z,100841.72
2023-01-13T06:44:25.935Z,100842.31
2023-01-13T06:46:57.252Z,100827.75
2023-01-13T06:49:27.950Z,100831.03
2023-01-13T06:51:58.583Z,100824.59
2023-01-13T06:54:29.191Z,100818.91
2023-01-13T06:57:00.561Z,100813.28
2023-01-13T06:59:31.666Z,100810.59
2023-01-13T07:02:02.389Z,100813.91
2023-01-13T07:04:34.271Z,100805.53
2023-01-13T07:07:04.832Z,100801.34
2023-01-13T07:09:35.885Z,100802.16
2023-01-13T07:12:06.875Z,100800.06
2023-01-13T07:14:55.669Z,100799.63
2023-01-13T07:17:26.653Z,100793.13
2023-01-13T07:19:57.418Z,100792.06
2023-01-13T07:22:28.082Z,100788.31
2023-01-13T07:24:59.525Z,100789.97
2023-01-13T07:27:30.109Z,100787.88
2023-01-13T07:30:00.827Z,100723.72
2023-01-13T07:32:33.555Z,100796.63
2023-01-13T07:35:06.913Z,100792.00
2023-01-13T07:37:38.544Z,100788.25
2023-01-13T07:40:09.517Z,100791.19
2023-01-13T07:42:58.700Z,100787.00
2023-01-13T07:45:29.531Z,100784.06
2023-01-13T07:48:00.073Z,100784.44
2023-01-13T07:50:30.689Z,100785.25
2023-01-13T07:53:01.236Z,100789.41
2023-01-13T07:55:31.991Z,100774.78
2023-01-13T07:58:02.565Z,100768.94
2023-01-13T08:00:33.206Z,100766.81
2023-01-13T08:03:03.948Z,100759.72
2023-01-13T08:05:36.371Z,100759.28
2023-01-13T08:08:06.991Z,100746.34
2023-01-13T08:10:39.057Z,100754.22
2023-01-13T08:13:19.697Z,100757.53
2023-01-13T08:15:54.662Z,100751.66
2023-01-13T08:18:25.156Z,100745.16
2023-01-13T08:20:56.076Z,100752.03
2023-01-13T08:23:26.736Z,100756.16
2023-01-13T08:26:01.395Z,100753.22
2023-01-13T08:28:32.957Z,100750.88
2023-01-13T08:31:07.807Z,100741.25
2023-01-13T08:33:39.293Z,100751.38
2023-01-13T08:36:11.080Z,100747.16
2023-01-13T08:38:42.334Z,100741.50
2023-01-13T08:41:14.405Z,100745.03
2023-01-13T08:43:45.010Z,100744.59
2023-01-13T08:46:15.833Z,100744.59
2023-01-13T08:48:46.398Z,100738.75
2023-01-13T08:51:17.303Z,100732.84
2023-01-13T08:53:47.838Z,100733.81
2023-01-13T08:56:18.705Z,100737.13
2023-01-13T08:58:49.539Z,100739.13
2023-01-13T09:01:23.281Z,100736.53
2023-01-13T09:03:54.122Z,100739.16
2023-01-13T09:06:24.794Z,100726.53
2023-01-13T09:08:56.765Z,100723.13
2023-01-13T09:11:51.111Z,100723.72
2023-01-13T09:14:25.356Z,100722.44
2023-01-13T09:16:56.295Z,100722.19
2023-01-13T09:19:27.188Z,100726.31
2023-01-13T09:21:58.882Z,100723.38
2023-01-13T09:24:29.719Z,100726.25
2023-01-13T09:27:00.567Z,100734.50
2023-01-13T09:29:31.232Z,100727.78
2023-01-13T09:32:02.300Z,100733.59
2023-01-13T09:34:50.784Z,100739.59
2023-01-13T09:37:21.464Z,100737.25
2023-01-13T09:39:52.031Z,100738.41
2023-01-13T09:42:44.802Z,100739.22
2023-01-13T09:45:27.722Z,100746.34
2023-01-13T09:48:04.402Z,100747.97
2023-01-13T09:50:41.346Z,100741.94
2023-01-13T09:53:20.358Z,100743.38
2023-01-13T09:55:51.105Z,100737.94
2023-01-13T09:58:22.006Z,100745.03
2023-01-13T10:00:52.561Z,100752.59
2023-01-13T10:03:33.267Z,100753.41
2023-01-13T10:06:15.641Z,100751.16
2023-01-13T10:08:47.402Z,100758.63
2023-01-13T10:11:40.140Z,100760.03
2023-01-13T10:14:14.481Z,100765.69
2023-01-13T10:16:48.226Z,100770.53
2023-01-13T10:19:20.893Z,100770.53
2023-01-13T10:22:03.236Z,100774.91
2023-01-13T10:24:42.650Z,100764.97
2023-01-13T10:27:33.170Z,100774.78
2023-01-13T10:30:22.355Z,100777.72
2023-01-13T10:33:22.241Z,100779.63
2023-01-13T10:35:52.870Z,100788.25
2023-01-13T10:38:25.671Z,100785.66
2023-01-13T10:41:06.887Z,100792.38
2023-01-13T10:43:37.948Z,100759.31
2023-01-13T10:46:17.613Z,100799.59
2023-01-13T10:48:55.291Z,100798.84
2023-01-13T10:51:28.451Z,100800.03
2023-01-13T10:54:16.097Z,100807.44
2023-01-13T10:56:47.565Z,100804.00
2023-01-13T10:59:18.176Z,100807.13
2023-01-13T11:02:00.897Z,100809.09
2023-01-13T11:05:02.011Z,100807.88
2023-01-13T11:07:36.384Z,100811.06
2023-01-13T11:10:19.451Z,100811.75
2023-01-13T11:12:59.676Z,100828.25
2023-01-13T11:15:40.199Z,100827.63
2023-01-13T11:18:30.896Z,100835.19
2023-01-13T11:21:02.298Z,100830.06
2023-01-13T11:23:46.431Z,100826.31
2023-01-13T11:26:20.619Z,100835.19
2023-01-13T11:28:55.072Z,100849.13
2023-01-13T11:31:32.360Z,100844.88
2023-01-13T11:34:26.166Z,100850.09
2023-01-13T11:36:58.808Z,100848.81
2023-01-13T11:39:46.965Z,100852.97
2023-01-13T11:42:37.569Z,100862.75
2023-01-13T11:45:28.677Z,100863.56
2023-01-13T11:48:00.395Z,100858.97
2023-01-13T11:50:35.662Z,100858.97
2023-01-13T11:53:17.791Z,100865.25
2023-01-13T11:55:54.467Z,100867.34
2023-01-13T11:58:29.004Z,100867.09
2023-01-13T12:01:23.163Z,100865.44
2023-01-13T12:04:08.484Z,100869.22
2023-01-13T12:06:43.207Z,100871.13
2023-01-13T12:09:20.668Z,100868.97
2023-01-13T12:12:15.538Z,100869.09
2023-01-13T12:14:55.074Z,100872.09
2023-01-13T12:17:44.908Z,100876.75
2023-01-13T12:20:35.429Z,100881.06
2023-01-13T12:23:08.508Z,100885.63
2023-01-13T12:25:41.959Z,100896.09
2023-01-13T12:28:15.945Z,100896.09
2023-01-13T12:30:51.945Z,100893.63
2023-01-13T12:33:23.030Z,100904.50
2023-01-13T12:35:59.655Z,100897.38
2023-01-13T12:38:44.154Z,100910.94
2023-01-13T12:41:20.431Z,100916.59
2023-01-13T12:44:09.760Z,100923.28
2023-01-13T12:46:48.794Z,100921.16
2023-01-13T12:49:24.124Z,100929.53
2023-01-13T12:51:54.806Z,100928.72
2023-01-13T12:54:57.581Z,100930.81
2023-01-13T12:57:29.001Z,100937.44
2023-01-13T13:00:02.948Z,100943.91
2023-01-13T13:02:37.967Z,100939.56
2023-01-13T13:05:17.629Z,100948.72
2023-01-13T13:07:55.259Z,100956.28
2023-01-13T13:10:30.828Z,100957.53
2023-01-13T13:13:19.955Z,100961.28
2023-01-13T13:15:51.838Z,100967.53
2023-01-13T13:18:28.877Z,100976.06
2023-01-13T13:21:07.624Z,100970.66
2023-01-13T13:23:56.564Z,100970.91
2023-01-13T13:26:37.259Z,100977.34
2023-01-13T13:29:16.942Z,100986.34
2023-01-13T13:32:06.357Z,100987.06
2023-01-13T13:34:36.848Z,100988.75
2023-01-13T13:37:22.565Z,100994.38
2023-01-13T13:40:11.147Z,100993.94
2023-01-13T13:43:27.399Z,100988.09
2023-01-13T13:46:16.004Z,100996.22
2023-01-13T13:48:55.523Z,100997.66
2023-01-13T13:51:40.092Z,100990.13
2023-01-13T13:54:16.280Z,100986.00
2023-01-13T13:56:48.297Z,100989.31
2023-01-13T13:59:32.017Z,100993.69
2023-01-13T14:02:05.136Z,100994.56
2023-01-13T14:04:38.331Z,100999.00
2023-01-13T14:07:22.794Z,100995.41
2023-01-13T14:09:57.955Z,101005.88
2023-01-13T14:12:29.274Z,101005.91
2023-01-13T14:15:01.387Z,101009.66
2023-01-13T14:17:32.791Z,101003.03
2023-01-13T14:20:06.762Z,100997.25
2023-01-13T14:22:37.557Z,101002.31
2023-01-13T14:25:43.197Z,101001.47
2023-01-13T14:28:13.876Z,101011.47
2023-01-13T14:30:44.692Z,101011.72
2023-01-13T14:33:20.058Z,101011.06
2023-01-13T14:36:09.557Z,101010.66
2023-01-13T14:38:40.363Z,101005.91
2023-01-13T14:41:20.772Z,101012.16
2023-01-13T14:43:53.044Z,101008.03
2023-01-13T14:46:26.511Z,101021.97
2023-01-13T14:49:04.197Z,101017.75
2023-01-13T14:51:34.949Z,101022.75
2023-01-13T14:54:05.724Z,101015.69
2023-01-13T14:56:39.560Z,101004.66
2023-01-13T14:59:28.432Z,101010.25
2023-01-13T15:01:59.514Z,101012.34
2023-01-13T15:04:38.207Z,101011.06
2023-01-13T15:07:19.462Z,101016.28
2023-01-13T15:09:54.795Z,101014.75
2023-01-13T15:12:37.453Z,101024.31
2023-01-13T15:15:22.804Z,101022.19
2023-01-13T15:17:54.029Z,101021.38
2023-01-13T15:20:26.361Z,101027.97
2023-01-13T15:22:59.321Z,101031.50
2023-01-13T15:25:37.041Z,101029.84
2023-01-13T15:28:08.886Z,101034.19
2023-01-13T15:30:39.494Z,101027.97
2023-01-13T15:33:11.288Z,101021.56
2023-01-13T15:35:44.146Z,101022.97
2023-01-13T15:38:15.626Z,101010.13
2023-01-13T15:40:46.452Z,101007.19
2023-01-13T15:43:36.372Z,101004.09
2023-01-13T15:46:29.930Z,101003.91
2023-01-13T15:49:03.243Z,101004.31
2023-01-13T15:51:33.742Z,100992.88
2023-01-13T15:54:04.639Z,101000.56
2023-01-13T15:56:37.600Z,100999.91
2023-01-13T15:59:12.545Z,101000.56
2023-01-13T16:01:43.229Z,100991.00
2023-01-13T16:04:14.386Z,100999.75
2023-01-13T16:06:45.198Z,101001.00
2023-01-13T16:09:16.376Z,100999.31
2023-01-13T16:11:46.962Z,101011.81
2023-01-13T16:14:17.635Z,101006.41
2023-01-13T16:16:48.376Z,101001.44
2023-01-13T16:19:19.433Z,101006.81
2023-01-13T16:21:50.346Z,100998.72
2023-01-13T16:24:21.025Z,101001.81
2023-01-13T16:26:52.306Z,101008.47
2023-01-13T16:29:22.929Z,101004.31
2023-01-13T16:31:53.462Z,100995.97
2023-01-13T16:34:24.105Z,101000.09
2023-01-13T16:36:55.404Z,100995.94
2023-01-13T16:39:26.003Z,100993.63
2023-01-13T16:41:57.918Z,100993.03
2023-01-13T16:44:28.697Z,100992.81
2023-01-13T16:46:59.573Z,100988.00
2023-01-13T16:49:30.382Z,100980.47
2023-01-13T16:52:01.452Z,100981.72
2023-01-13T16:54:32.058Z,100967.38
2023-01-13T16:57:02.755Z,100975.44
2023-01-13T16:59:33.712Z,100967.53
2023-01-13T17:02:06.360Z,100966.72
2023-01-13T17:04:37.100Z,100972.91
2023-01-13T17:07:11.632Z,100977.69
2023-01-13T17:09:42.216Z,100982.47
2023-01-13T17:12:13.118Z,100978.47
2023-01-13T17:14:44.860Z,100981.59
2023-01-13T17:17:25.510Z,100975.75
2023-01-13T17:19:56.109Z,100968.25
2023-01-13T17:22:27.313Z,100953.72
2023-01-13T17:24:57.937Z,100959.09
2023-01-13T17:27:28.496Z,100960.31
2023-01-13T17:29:59.095Z,100962.38
2023-01-13T17:32:29.727Z,100961.13
2023-01-13T17:35:03.033Z,100958.81
2023-01-13T17:37:34.122Z,100952.78
2023-01-13T17:40:04.697Z,100952.34
2023-01-13T17:42:35.297Z,100961.00
2023-01-13T17:45:06.008Z,100962.44
2023-01-13T17:47:36.614Z,100960.75
2023-01-13T17:50:07.569Z,100951.84
2023-01-13T17:52:38.107Z,100938.78
2023-01-13T17:55:08.775Z,100935.69
2023-01-13T17:57:39.268Z,100942.78
2023-01-13T18:00:10.400Z,100937.38
2023-01-13T18:02:43.784Z,100940.72
2023-01-13T18:05:14.680Z,100935.34
2023-01-13T18:07:45.571Z,100926.59
2023-01-13T18:10:16.231Z,100919.16
2023-01-13T18:12:46.790Z,100917.88
2023-01-13T18:15:17.452Z,100915.00
2023-01-13T18:17:48.499Z,100908.75
2023-01-13T18:20:38.274Z,100905.03
2023-01-13T18:23:28.558Z,100891.75
2023-01-13T18:26:17.315Z,100897.13
2023-01-13T18:28:48.456Z,100897.53
2023-01-13T18:31:19.267Z,100895.69
2023-01-13T18:33:50.224Z,100887.59
2023-01-13T18:36:21.067Z,100884.91
2023-01-13T18:38:52.182Z,100883.25
2023-01-13T18:41:41.141Z,100878.03
2023-01-13T18:44:11.695Z,100863.13
2023-01-13T18:46:42.306Z,100858.09
2023-01-13T18:49:12.797Z,100862.09
2023-01-13T18:51:43.468Z,100855.63
2023-01-13T18:54:14.180Z,100859.38
2023-01-13T18:56:44.814Z,100861.03
2023-01-13T18:59:19.093Z,100860.03
2023-01-13T19:01:49.896Z,100843.84
2023-01-13T19:04:21.189Z,100837.41
2023-01-13T19:06:54.845Z,100835.78
2023-01-13T19:09:30.151Z,100835.78
2023-01-13T19:12:02.729Z,100822.28
2023-01-13T19:14:36.155Z,100815.44
2023-01-13T19:17:10.382Z,100823.53
2023-01-13T19:19:48.038Z,100820.00
2023-01-13T19:22:21.111Z,100819.38
2023-01-13T19:24:52.264Z,100820.38
2023-01-13T19:27:23.429Z,100813.34
2023-01-13T19:29:55.190Z,100815.00
2023-01-13T19:32:26.356Z,100809.00
2023-01-13T19:35:00.539Z,100814.56
2023-01-13T19:37:31.678Z,100811.03
2023-01-13T19:40:02.421Z,100819.94
2023-01-13T19:42:51.904Z,100813.75
2023-01-13T19:45:28.644Z,100814.13
2023-01-13T19:48:01.903Z,100815.19
2023-01-13T19:50:33.082Z,100808.75
2023-01-13T19:53:03.666Z,100802.09
2023-01-13T19:55:34.438Z,100805.81
2023-01-13T19:58:05.696Z,100806.22
2023-01-13T20:00:36.605Z,100803.28
2023-01-13T20:03:12.068Z,100806.38
2023-01-13T20:05:42.891Z,100809.06
2023-01-13T20:08:13.684Z,100805.16
2023-01-13T20:10:46.179Z,100810.72
2023-01-13T20:13:17.351Z,100807.84
2023-01-13T20:15:47.925Z,100812.41
2023-01-13T20:18:18.526Z,100812.41
2023-01-13T20:20:49.755Z,100809.72
2023-01-13T20:23:20.426Z,100806.38
2023-01-13T20:25:50.922Z,100813.63
2023-01-13T20:28:21.620Z,100810.13
2023-01-13T20:30:52.378Z,100808.44
2023-01-13T20:33:22.939Z,100805.56
2023-01-13T20:36:00.248Z,100806.56
2023-01-13T20:38:37.881Z,100725.66
2023-01-13T20:41:27.633Z,100794.97
2023-01-13T20:43:58.826Z,100804.09
2023-01-13T20:46:29.480Z,100797.03
2023-01-13T20:49:00.033Z,100799.09
2023-01-13T20:51:30.537Z,100803.44
2023-01-13T20:54:01.143Z,100798.28
2023-01-13T20:56:31.752Z,100799.69
2023-01-13T20:59:02.446Z,100798.22
2023-01-13T21:01:33.607Z,100795.75
2023-01-13T21:04:04.571Z,100792.59
2023-01-13T21:06:35.800Z,100795.09
2023-01-13T21:09:06.699Z,100796.13
2023-01-13T21:11:55.301Z,100795.28
2023-01-13T21:14:45.785Z,100804.41
2023-01-13T21:17:35.154Z,100808.75
2023-01-13T21:20:11.314Z,100808.75
2023-01-13T21:22:45.764Z,100808.13
2023-01-13T21:25:17.959Z,100820.56
2023-01-13T21:27:49.220Z,100816.81
2023-01-13T21:30:20.416Z,100817.22
2023-01-13T21:32:51.011Z,100818.25
2023-01-13T21:35:21.583Z,100820.94
2023-01-13T21:37:52.444Z,100821.13
2023-01-13T21:40:22.977Z,100820.13
2023-01-13T21:43:11.604Z,100828.34
2023-01-13T21:46:00.636Z,100825.22
2023-01-13T21:48:31.556Z,100817.97
2023-01-13T21:51:02.908Z,100819.84
2023-01-13T21:53:33.528Z,100823.56
2023-01-13T21:56:04.014Z,100820.03
2023-01-13T21:58:34.964Z,100826.44
2023-01-13T22:01:05.888Z,100828.31
2023-01-13T22:03:55.001Z,100824.16
2023-01-13T22:06:26.200Z,100822.50
2023-01-13T22:09:03.052Z,100827.63
2023-01-13T22:11:33.977Z,100834.03
2023-01-13T22:14:08.215Z,100835.91
2023-01-13T22:16:40.894Z,100830.31
2023-01-13T22:19:12.418Z,100834.03
2023-01-13T22:21:43.493Z,100834.03
2023-01-13T22:24:14.199Z,100845.84
2023-01-13T22:26:44.678Z,100845.19
2023-01-13T22:29:15.412Z,100844.75
2023-01-13T22:31:47.039Z,100853.00
2023-01-13T22:34:17.809Z,100855.09
2023-01-13T22:36:48.917Z,100853.00
2023-01-13T22:39:19.759Z,100848.66
2023-01-13T22:41:50.811Z,100850.09
2023-01-13T22:44:22.282Z,100860.00
2023-01-13T22:46:52.832Z,100855.84
2023-01-13T22:49:24.592Z,100863.09
2023-01-13T22:51:55.786Z,100864.94
2023-01-13T22:54:26.506Z,100858.75
2023-01-13T22:56:57.569Z,100857.69
2023-01-13T22:59:28.478Z,100866.59
2023-01-13T23:01:59.583Z,100863.16
2023-01-13T23:04:30.191Z,100868.41
2023-01-13T23:07:01.607Z,100865.56
2023-01-13T23:09:32.649Z,100871.66
2023-01-13T23:12:03.164Z,100866.97
2023-01-13T23:14:33.799Z,100872.84
2023-01-13T23:17:04.534Z,100874.38
2023-01-13T23:19:35.325Z,100878.31
2023-01-13T23:22:06.055Z,100876.28
2023-01-13T23:24:36.630Z,100881.50
2023-01-13T23:27:07.321Z,100890.91
2023-01-13T23:29:38.160Z,100890.09
2023-01-13T23:32:08.816Z,100890.16
2023-01-13T23:34:39.317Z,100888.34
2023-01-13T23:37:10.048Z,100896.03
2023-01-13T23:39:40.964Z,100902.28
2023-01-13T23:42:11.867Z,100905.59
2023-01-13T23:44:42.825Z,100898.16
2023-01-13T23:47:14.169Z,100898.56
2023-01-13T23:49:44.704Z,100911.28
2023-01-13T23:52:15.371Z,100908.59
2023-01-13T23:54:46.102Z,100913.41
2023-01-13T23:57:16.757Z,100916.50
2023-01-13T23:59:47.458Z,100917.97
